createdAt,value
2018-11-28T08:13:38.534Z,47.03
2018-11-28T08:14:10.525Z,47.03
2018-11-28T08:14:42.502Z,46.84
2018-11-28T08:15:14.490Z,46.84
2018-11-28T08:15:46.536Z,47.03
2018-11-28T08:16:18.527Z,46.75
2018-11-28T08:16:50.496Z,46.75
2018-11-28T08:17:22.487Z,46.75
2018-11-28T08:17:54.461Z,46.82
2018-11-28T08:18:26.447Z,46.94
2018-11-28T08:18:58.459Z,46.84
2018-11-28T08:19:30.448Z,47.13
2018-11-28T08:20:02.426Z,46.94
2018-11-28T08:20:34.382Z,46.75
2018-11-28T08:21:06.370Z,46.84
2018-11-28T08:21:38.333Z,46.94
2018-11-28T08:22:10.332Z,47.03
2018-11-28T08:22:42.304Z,46.84
2018-11-28T08:23:14.305Z,47.03
2018-11-28T08:23:46.282Z,47.13
2018-11-28T08:24:18.270Z,46.94
2018-11-28T08:24:50.237Z,47.03
2018-11-28T08:25:28.210Z,46.84
2018-11-28T08:26:00.217Z,46.84
2018-11-28T08:26:32.219Z,47.13
2018-11-28T08:27:04.187Z,47.13
2018-11-28T08:27:36.163Z,47.13
2018-11-28T08:28:08.133Z,46.94
2018-11-28T08:28:40.118Z,46.94
2018-11-28T08:29:12.109Z,47.13
2018-11-28T08:29:44.081Z,47.03
2018-11-28T08:30:16.069Z,47.03
2018-11-28T08:30:48.051Z,46.84
2018-11-28T08:31:20.023Z,47.03
2018-11-28T08:31:52.003Z,47.03
2018-11-28T08:32:23.992Z,46.94
2018-11-28T08:32:56.058Z,47.23
2018-11-28T08:33:28.040Z,47.13
2018-11-28T08:34:00.022Z,46.94
2018-11-28T08:34:32.025Z,47.13
2018-11-28T08:35:04.009Z,46.94
2018-11-28T08:35:36.004Z,47.03
2018-11-28T08:36:08.711Z,47.13
2018-11-28T08:36:40.821Z,47.03
2018-11-28T08:37:12.794Z,47.03
2018-11-28T08:37:44.826Z,47.03
2018-11-28T08:38:16.825Z,47.03
2018-11-28T08:38:48.789Z,47.03
2018-11-28T08:39:20.750Z,47.03
2018-11-28T08:39:52.734Z,46.94
2018-11-28T08:40:24.723Z,46.94
2018-11-28T08:40:56.707Z,47.13
2018-11-28T08:41:28.699Z,47.13
2018-11-28T08:42:00.699Z,47.13
2018-11-28T08:42:32.675Z,47.03
2018-11-28T08:43:04.675Z,47.23
2018-11-28T08:43:36.641Z,47.03
2018-11-28T08:44:08.605Z,47.23
2018-11-28T08:44:40.577Z,46.94
2018-11-28T08:45:12.535Z,47.03
2018-11-28T08:45:44.698Z,47.03
2018-11-28T08:46:16.989Z,47.13
2018-11-28T08:46:48.969Z,47.03
2018-11-28T08:47:20.959Z,47.03
2018-11-28T08:47:52.935Z,46.94
2018-11-28T08:48:25.034Z,47.13
2018-11-28T08:48:57.124Z,47.03
2018-11-28T08:49:29.110Z,46.94
2018-11-28T08:50:01.156Z,47.03
2018-11-28T08:50:33.311Z,47.13
2018-11-28T08:51:05.297Z,47.13
2018-11-28T08:51:37.885Z,46.94
2018-11-28T08:52:09.871Z,47.13
2018-11-28T08:52:41.855Z,47.13
2018-11-28T08:53:13.883Z,47.03
2018-11-28T08:53:45.845Z,47.13
2018-11-28T08:54:17.829Z,47.13
2018-11-28T08:54:49.815Z,46.84
2018-11-28T08:55:21.797Z,47.03
2018-11-28T08:55:53.766Z,46.94
2018-11-28T08:56:25.825Z,47.03
2018-11-28T08:56:57.878Z,47.06
2018-11-28T08:57:31.074Z,46.94
2018-11-28T08:58:03.075Z,46.94
2018-11-28T08:58:35.353Z,47.13
2018-11-28T08:59:07.342Z,46.94
2018-11-28T08:59:39.327Z,47.06
2018-11-28T09:00:11.334Z,46.87
2018-11-28T09:00:43.319Z,47.06
2018-11-28T09:01:15.307Z,46.96
2018-11-28T09:01:47.266Z,47.16
2018-11-28T09:02:19.253Z,47.16
2018-11-28T09:02:51.235Z,46.96
2018-11-28T09:03:23.202Z,46.87
2018-11-28T09:03:55.174Z,46.96
2018-11-28T09:04:27.156Z,47.06
2018-11-28T09:04:59.118Z,46.96
2018-11-28T09:05:31.097Z,46.87
2018-11-28T09:06:03.105Z,46.87
2018-11-28T09:06:35.140Z,46.96
2018-11-28T09:07:07.087Z,46.87
2018-11-28T09:07:39.073Z,46.87
2018-11-28T09:08:11.086Z,47.16
2018-11-28T09:08:43.067Z,46.96
2018-11-28T09:09:15.126Z,47.16
2018-11-28T09:09:47.224Z,46.87
2018-11-28T09:10:20.672Z,46.87
2018-11-28T09:10:52.641Z,46.96
2018-11-28T09:11:24.642Z,46.96
2018-11-28T09:11:56.618Z,46.96
2018-11-28T09:12:28.631Z,46.87
2018-11-28T09:13:04.662Z,47.06
2018-11-28T09:13:36.692Z,46.87
2018-11-28T09:14:08.690Z,46.87
2018-11-28T09:14:40.673Z,46.96
2018-11-28T09:15:12.654Z,47.06
2018-11-28T09:15:44.634Z,47.06
2018-11-28T09:16:16.686Z,46.96
2018-11-28T09:16:48.869Z,46.96
2018-11-28T09:17:20.850Z,46.96
2018-11-28T09:17:52.817Z,47.06
2018-11-28T09:18:24.821Z,46.87
2018-11-28T09:18:56.836Z,47.06
2018-11-28T09:19:28.859Z,46.87
2018-11-28T09:20:00.856Z,46.96
2018-11-28T09:20:34.339Z,46.77
2018-11-28T09:21:06.305Z,46.96
2018-11-28T09:21:38.274Z,46.87
2018-11-28T09:22:10.259Z,46.87
2018-11-28T09:22:42.261Z,46.96
2018-11-28T09:23:14.251Z,46.87
2018-11-28T09:23:46.232Z,46.87
2018-11-28T09:24:18.216Z,46.77
2018-11-28T09:24:50.198Z,46.96
2018-11-28T09:25:22.222Z,47.06
2018-11-28T09:25:54.206Z,46.87
2018-11-28T09:26:26.200Z,46.87
2018-11-28T09:26:58.185Z,46.87
2018-11-28T09:27:30.154Z,46.87
2018-11-28T09:28:02.148Z,47.06
2018-11-28T09:28:34.369Z,46.96
2018-11-28T09:29:06.354Z,46.77
2018-11-28T09:29:38.339Z,46.96
2018-11-28T09:30:10.322Z,46.77
2018-11-28T09:30:42.284Z,46.96
2018-11-28T09:31:14.266Z,46.87
2018-11-28T09:31:46.240Z,46.96
2018-11-28T09:32:18.225Z,46.87
2018-11-28T09:32:50.269Z,47.06
2018-11-28T09:33:22.269Z,46.87
2018-11-28T09:33:54.241Z,47.06
2018-11-28T09:34:26.228Z,46.77
2018-11-28T09:34:58.218Z,46.96
2018-11-28T09:35:30.205Z,46.77
2018-11-28T09:36:02.163Z,46.87
2018-11-28T09:36:34.176Z,46.96
2018-11-28T09:37:06.132Z,46.96
2018-11-28T09:37:38.115Z,46.98
2018-11-28T09:38:16.772Z,46.96
2018-11-28T09:38:48.753Z,46.89
2018-11-28T09:39:20.758Z,46.89
2018-11-28T09:39:52.761Z,46.98
2018-11-28T09:40:24.725Z,47.08
2018-11-28T09:40:56.718Z,46.87
2018-11-28T09:41:28.714Z,46.89
2018-11-28T09:42:00.687Z,46.98
2018-11-28T09:42:32.636Z,46.89
2018-11-28T09:43:04.612Z,46.89
2018-11-28T09:43:36.615Z,46.89
2018-11-28T09:44:08.590Z,46.8
2018-11-28T09:44:40.596Z,46.8
2018-11-28T09:45:12.570Z,46.8
2018-11-28T09:45:44.553Z,46.8
2018-11-28T09:46:16.550Z,46.8
2018-11-28T09:46:48.537Z,46.8
2018-11-28T09:47:20.519Z,46.7
2018-11-28T09:47:52.500Z,46.98
2018-11-28T09:48:24.504Z,46.8
2018-11-28T09:48:56.492Z,47.08
2018-11-28T09:49:28.475Z,46.7
2018-11-28T09:50:00.449Z,46.98
2018-11-28T09:50:32.425Z,46.98
2018-11-28T09:51:04.407Z,47.08
2018-11-28T09:51:36.416Z,46.7
2018-11-28T09:52:08.445Z,46.89
2018-11-28T09:52:40.488Z,46.8
2018-11-28T09:53:12.469Z,46.8
2018-11-28T09:53:44.449Z,46.7
2018-11-28T09:54:16.432Z,46.8
2018-11-28T09:54:48.416Z,46.8
2018-11-28T09:55:20.404Z,46.7
2018-11-28T09:55:52.415Z,46.89
2018-11-28T09:56:24.402Z,46.7
2018-11-28T09:56:56.386Z,46.8
2018-11-28T09:57:28.375Z,46.89
2018-11-28T09:58:00.350Z,46.8
2018-11-28T09:58:32.355Z,46.89
2018-11-28T09:59:04.340Z,46.89
2018-11-28T09:59:36.308Z,46.8
2018-11-28T10:00:08.274Z,46.7
2018-11-28T10:00:40.246Z,46.8
2018-11-28T10:01:12.209Z,46.8
2018-11-28T10:01:44.177Z,46.89
2018-11-28T10:02:16.155Z,46.8
2018-11-28T10:02:48.131Z,46.8
2018-11-28T10:03:20.149Z,46.8
2018-11-28T10:03:52.131Z,46.89
2018-11-28T10:04:24.099Z,46.98
2018-11-28T10:04:56.082Z,46.89
2018-11-28T10:05:34.601Z,46.98
2018-11-28T10:06:06.617Z,47.08
2018-11-28T10:06:38.590Z,46.89
2018-11-28T10:07:10.573Z,46.98
2018-11-28T10:07:42.567Z,46.51
2018-11-28T10:08:14.567Z,46.98
2018-11-28T10:08:46.535Z,46.82
2018-11-28T10:09:18.517Z,46.82
2018-11-28T10:09:50.512Z,46.82
2018-11-28T10:10:22.503Z,46.82
2018-11-28T10:10:54.468Z,46.91
2018-11-28T10:11:26.443Z,47.01
2018-11-28T10:11:58.438Z,47.01
2018-11-28T10:12:30.466Z,47.01
2018-11-28T10:13:02.437Z,47.01
2018-11-28T10:13:34.401Z,47.01
2018-11-28T10:14:06.363Z,46.91
2018-11-28T10:14:38.346Z,47.01
2018-11-28T10:15:10.313Z,47.01
2018-11-28T10:15:42.288Z,47.01
2018-11-28T10:16:14.257Z,46.91
2018-11-28T10:16:47.737Z,47.01
2018-11-28T10:17:22.780Z,47.01
2018-11-28T10:17:54.753Z,47.01
2018-11-28T10:18:26.744Z,46.84
2018-11-28T10:18:58.705Z,47.13
2018-11-28T10:19:30.689Z,46.94
2018-11-28T10:20:02.682Z,46.94
2018-11-28T10:20:34.651Z,46.84
2018-11-28T10:21:06.620Z,46.84
2018-11-28T10:21:38.601Z,46.94
2018-11-28T10:22:10.579Z,46.75
2018-11-28T10:22:42.563Z,46.94
2018-11-28T10:23:14.539Z,46.84
2018-11-28T10:23:46.516Z,46.94
2018-11-28T10:24:18.494Z,46.84
2018-11-28T10:24:50.539Z,46.94
2018-11-28T10:25:22.511Z,47.03
2018-11-28T10:25:54.574Z,46.75
2018-11-28T10:26:26.540Z,46.75
2018-11-28T10:26:58.509Z,46.94
2018-11-28T10:27:30.501Z,46.75
2018-11-28T10:28:02.465Z,46.94
2018-11-28T10:28:34.465Z,46.84
2018-11-28T10:29:06.445Z,46.75
2018-11-28T10:29:38.410Z,46.84
2018-11-28T10:30:10.386Z,46.75
2018-11-28T10:30:42.363Z,46.65
2018-11-28T10:31:14.326Z,46.75
2018-11-28T10:31:46.308Z,46.58
2018-11-28T10:32:18.361Z,46.65
2018-11-28T10:32:50.365Z,46.39
2018-11-28T10:33:22.337Z,46.77
2018-11-28T10:33:54.306Z,46.77
2018-11-28T10:34:29.955Z,46.77
2018-11-28T10:35:01.960Z,46.77
2018-11-28T10:35:33.941Z,46.86
2018-11-28T10:36:05.918Z,46.96
2018-11-28T10:36:37.895Z,46.58
2018-11-28T10:37:09.869Z,46.39
2018-11-28T10:37:41.847Z,46.67
2018-11-28T10:38:13.812Z,46.58
2018-11-28T10:38:45.796Z,46.67
2018-11-28T10:39:17.850Z,46.58
2018-11-28T10:39:49.841Z,46.29
2018-11-28T10:40:21.809Z,46.39
2018-11-28T10:40:53.775Z,46.48
2018-11-28T10:41:25.748Z,46.39
2018-11-28T10:41:57.747Z,46.39
2018-11-28T10:42:29.693Z,46.58
2018-11-28T10:43:01.681Z,46.29
2018-11-28T10:43:33.664Z,46.29
2018-11-28T10:44:05.679Z,46.29
2018-11-28T10:44:37.664Z,46.58
2018-11-28T10:45:09.641Z,46.48
2018-11-28T10:45:41.626Z,46.29
2018-11-28T10:46:13.657Z,46.67
2018-11-28T10:46:45.630Z,46.03
2018-11-28T10:47:17.635Z,46.41
2018-11-28T10:47:49.664Z,46.22
2018-11-28T10:48:21.652Z,46.22
2018-11-28T10:48:53.658Z,46.22
2018-11-28T10:49:25.619Z,45.93
2018-11-28T10:49:57.628Z,46.12
2018-11-28T10:50:29.607Z,46.22
2018-11-28T10:51:01.584Z,46.22
2018-11-28T10:51:33.565Z,46.03
2018-11-28T10:52:05.534Z,46.41
2018-11-28T10:52:37.505Z,46.22
2018-11-28T10:53:09.505Z,46.22
2018-11-28T10:53:41.479Z,46.22
2018-11-28T10:54:13.451Z,46.12
2018-11-28T10:54:45.434Z,45.93
2018-11-28T10:55:17.397Z,46.12
2018-11-28T10:55:49.365Z,46.12
2018-11-28T10:56:21.335Z,45.93
2018-11-28T10:56:53.308Z,45.93
2018-11-28T10:57:25.305Z,46.12
2018-11-28T10:57:57.268Z,46.12
2018-11-28T10:58:29.312Z,45.83
2018-11-28T10:59:01.357Z,45.83
2018-11-28T10:59:33.424Z,45.83
2018-11-28T11:00:05.493Z,46.22
2018-11-28T11:00:37.685Z,46.05
2018-11-28T11:01:09.753Z,45.93
2018-11-28T11:01:41.743Z,45.93
2018-11-28T11:02:13.725Z,45.93
2018-11-28T11:02:45.714Z,45.83
2018-11-28T11:03:17.848Z,46.22
2018-11-28T11:03:49.846Z,45.95
2018-11-28T11:04:21.812Z,46.22
2018-11-28T11:04:54.370Z,45.93
2018-11-28T11:05:26.541Z,46.31
2018-11-28T11:05:58.607Z,45.93
2018-11-28T11:06:30.555Z,46.12
2018-11-28T11:07:02.567Z,45.93
2018-11-28T11:07:34.557Z,46.22
2018-11-28T11:08:06.540Z,46.41
2018-11-28T11:08:38.539Z,46.12
2018-11-28T11:09:10.527Z,46.41
2018-11-28T11:09:43.318Z,46.31
2018-11-28T11:10:15.527Z,45.93
2018-11-28T11:10:47.509Z,46.31
2018-11-28T11:11:19.485Z,46.31
2018-11-28T11:11:51.451Z,45.83
2018-11-28T11:12:23.458Z,46.22
2018-11-28T11:12:55.446Z,46.22
2018-11-28T11:13:27.412Z,46.12
2018-11-28T11:13:59.416Z,46.31
2018-11-28T11:14:31.408Z,46.22
2018-11-28T11:15:03.401Z,46.03
2018-11-28T11:15:35.376Z,46.22
2018-11-28T11:16:07.350Z,46.12
2018-11-28T11:16:39.340Z,46.12
2018-11-28T11:17:11.348Z,46.12
2018-11-28T11:17:43.334Z,46.12
2018-11-28T11:18:15.314Z,46.03
2018-11-28T11:18:47.276Z,46.03
2018-11-28T11:19:19.228Z,46.03
2018-11-28T11:19:51.245Z,46.03
2018-11-28T11:20:23.221Z,46.12
2018-11-28T11:20:55.210Z,46.03
2018-11-28T11:21:27.237Z,46.12
2018-11-28T11:21:59.231Z,46.03
2018-11-28T11:22:31.227Z,46.03
2018-11-28T11:23:03.222Z,46.22
2018-11-28T11:23:35.200Z,46.12
2018-11-28T11:24:07.177Z,46.12
2018-11-28T11:24:39.191Z,46.03
2018-11-28T11:25:11.172Z,46.12
2018-11-28T11:25:43.159Z,46.12
2018-11-28T11:26:15.159Z,46.03
2018-11-28T11:26:47.135Z,46.03
2018-11-28T11:27:19.127Z,45.93
2018-11-28T11:27:51.130Z,46.03
2018-11-28T11:28:23.099Z,46.12
2018-11-28T11:28:55.084Z,46.12
2018-11-28T11:29:27.085Z,46.1
2018-11-28T11:29:59.170Z,46
2018-11-28T11:30:31.202Z,45.62
2018-11-28T11:31:03.181Z,46.03
2018-11-28T11:31:35.170Z,46.22
2018-11-28T11:32:07.141Z,46.12
2018-11-28T11:32:39.140Z,46.19
2018-11-28T11:33:11.198Z,46.19
2018-11-28T11:33:43.162Z,46.12
2018-11-28T11:34:15.946Z,46
2018-11-28T11:34:48.887Z,46.1
2018-11-28T11:35:20.904Z,46
2018-11-28T11:35:52.896Z,46.1
2018-11-28T11:36:24.897Z,46.12
2018-11-28T11:36:56.880Z,46
2018-11-28T11:37:28.856Z,46.29
2018-11-28T11:38:00.844Z,46.19
2018-11-28T11:38:32.833Z,46
2018-11-28T11:39:04.822Z,46.19
2018-11-28T11:39:36.807Z,46.19
2018-11-28T11:40:08.782Z,46.1
2018-11-28T11:40:40.746Z,46
2018-11-28T11:41:12.723Z,46.1
2018-11-28T11:41:44.704Z,46.19
2018-11-28T11:42:16.680Z,46
2018-11-28T11:42:48.674Z,46
2018-11-28T11:43:20.655Z,46.19
2018-11-28T11:43:52.640Z,45.81
2018-11-28T11:44:24.618Z,46.1
2018-11-28T11:44:56.612Z,46.19
2018-11-28T11:45:28.589Z,46.1
2018-11-28T11:46:00.585Z,45.81
2018-11-28T11:46:32.589Z,46.1
2018-11-28T11:47:04.535Z,46.1
2018-11-28T11:47:36.516Z,45.9
2018-11-28T11:48:08.508Z,46.29
2018-11-28T11:48:40.500Z,46.19
2018-11-28T11:49:12.489Z,46.1
2018-11-28T11:49:44.475Z,46.19
2018-11-28T11:50:16.548Z,46
2018-11-28T11:50:48.525Z,45.81
2018-11-28T11:51:20.534Z,46.1
2018-11-28T11:51:52.510Z,45.81
2018-11-28T11:52:24.498Z,45.81
2018-11-28T11:53:02.371Z,46
2018-11-28T11:53:36.829Z,45.9
2018-11-28T11:54:08.822Z,46.19
2018-11-28T11:54:40.808Z,46.29
2018-11-28T11:55:12.916Z,46.39
2018-11-28T11:55:44.928Z,45.9
2018-11-28T11:56:17.024Z,46.29
2018-11-28T11:56:49.056Z,46.29
2018-11-28T11:57:21.292Z,46
2018-11-28T11:57:54.001Z,46.29
2018-11-28T11:58:25.975Z,46.19
2018-11-28T11:58:58.007Z,46.1
2018-11-28T11:59:30.009Z,46.1
2018-11-28T12:00:02.533Z,46.39
2018-11-28T12:00:34.532Z,46.29
2018-11-28T12:01:06.520Z,46.29
2018-11-28T12:01:38.578Z,45.81
2018-11-28T12:02:10.746Z,45.9
2018-11-28T12:02:42.773Z,45.9
2018-11-28T12:03:14.800Z,45.72
2018-11-28T12:03:46.789Z,46.1
2018-11-28T12:04:18.789Z,46.29
2018-11-28T12:04:50.780Z,46.19
2018-11-28T12:05:22.778Z,45.81
2018-11-28T12:05:54.758Z,45.81
2018-11-28T12:06:26.824Z,46.29
2018-11-28T12:06:58.807Z,46.1
2018-11-28T12:07:30.778Z,46
2018-11-28T12:08:02.804Z,46.29
2018-11-28T12:08:34.787Z,46.39
2018-11-28T12:09:06.790Z,46.19
2018-11-28T12:09:38.808Z,46.1
2018-11-28T12:10:10.792Z,45.9
2018-11-28T12:10:42.785Z,46.19
2018-11-28T12:11:29.372Z,46.19
2018-11-28T12:12:02.265Z,45.81
2018-11-28T12:12:37.053Z,46
2018-11-28T12:13:09.068Z,46.29
2018-11-28T12:13:41.035Z,45.9
2018-11-28T12:14:13.053Z,45.81
2018-11-28T12:14:45.047Z,46.19
2018-11-28T12:15:17.023Z,46.29
2018-11-28T12:15:49.024Z,46.19
2018-11-28T12:16:22.148Z,46.19
2018-11-28T12:16:54.167Z,46.1
2018-11-28T12:17:26.162Z,46.19
2018-11-28T12:17:58.155Z,46.1
2018-11-28T12:18:30.142Z,45.9
2018-11-28T12:19:02.130Z,45.81
2018-11-28T12:19:34.171Z,45.81
2018-11-28T12:20:06.182Z,46.19
2018-11-28T12:20:38.269Z,46.1
2018-11-28T12:21:10.271Z,46.19
2018-11-28T12:21:43.524Z,46
2018-11-28T12:22:15.587Z,46.1
2018-11-28T12:22:47.590Z,46.1
2018-11-28T12:23:19.559Z,46
2018-11-28T12:23:51.554Z,46.03
2018-11-28T12:24:23.536Z,46.12
2018-11-28T12:24:55.512Z,46.03
2018-11-28T12:25:27.501Z,45.93
2018-11-28T12:25:59.474Z,46.03
2018-11-28T12:26:31.470Z,46.12
2018-11-28T12:27:03.460Z,45.74
2018-11-28T12:27:35.454Z,46.12
2018-11-28T12:28:07.438Z,45.64
2018-11-28T12:28:39.414Z,45.83
2018-11-28T12:29:11.407Z,46.03
2018-11-28T12:29:43.880Z,46.12
2018-11-28T12:30:15.865Z,46.03
2018-11-28T12:30:47.844Z,46.03
2018-11-28T12:31:19.814Z,46.03
2018-11-28T12:31:51.797Z,46.12
2018-11-28T12:32:23.789Z,45.54
2018-11-28T12:32:55.782Z,46.12
2018-11-28T12:33:27.770Z,46.12
2018-11-28T12:33:59.755Z,46.03
2018-11-28T12:34:31.728Z,46.03
2018-11-28T12:35:03.712Z,46.03
2018-11-28T12:35:35.718Z,46.03
2018-11-28T12:36:07.713Z,46.12
2018-11-28T12:36:39.691Z,46.12
2018-11-28T12:37:11.679Z,46.03
2018-11-28T12:37:43.653Z,46.12
2018-11-28T12:38:15.642Z,46.22
2018-11-28T12:38:47.645Z,46.22
2018-11-28T12:39:52.693Z,46.22
2018-11-28T12:40:24.716Z,46.12
2018-11-28T12:40:56.707Z,46.22
2018-11-28T12:41:28.702Z,46.03
2018-11-28T12:42:00.715Z,46.22
2018-11-28T12:42:32.701Z,46.12
2018-11-28T12:43:04.674Z,46.12
2018-11-28T12:43:36.669Z,46.22
2018-11-28T12:44:08.654Z,46.12
2018-11-28T12:44:40.717Z,46.12
2018-11-28T12:45:12.732Z,46.12
2018-11-28T12:45:44.692Z,46.12
2018-11-28T12:46:16.678Z,46.12
2018-11-28T12:46:48.659Z,46.03
2018-11-28T12:47:20.691Z,46.12
2018-11-28T12:47:52.681Z,46.12
2018-11-28T12:48:24.632Z,46.03
2018-11-28T12:48:56.623Z,46.12
2018-11-28T12:49:28.598Z,46.03
2018-11-28T12:50:00.570Z,46.22
2018-11-28T12:50:32.553Z,46.03
2018-11-28T12:51:04.561Z,45.93
2018-11-28T12:51:36.544Z,46.03
2018-11-28T12:52:08.517Z,46.12
2018-11-28T12:52:40.495Z,46.03
2018-11-28T12:53:12.473Z,46.12
2018-11-28T12:53:44.459Z,46.03
2018-11-28T12:54:16.430Z,46.03
2018-11-28T12:54:48.386Z,46.03
2018-11-28T12:55:20.374Z,46.03
2018-11-28T12:55:52.375Z,46.12
2018-11-28T12:56:24.351Z,46.03
2018-11-28T12:56:56.298Z,46.12
2018-11-28T12:57:28.277Z,46.12
2018-11-28T12:58:00.243Z,46.03
2018-11-28T12:58:32.234Z,46.03
2018-11-28T12:59:04.214Z,45.93
2018-11-28T12:59:36.169Z,46.03
2018-11-28T13:00:08.133Z,46.03
2018-11-28T13:00:40.089Z,46.03
2018-11-28T13:01:12.064Z,46
2018-11-28T13:01:44.039Z,46.03
2018-11-28T13:02:16.025Z,46.12
2018-11-28T13:02:47.988Z,46.03
2018-11-28T13:03:19.969Z,46.12
2018-11-28T13:03:51.954Z,46.1
2018-11-28T13:04:23.945Z,46.1
2018-11-28T13:05:00.364Z,46.12
2018-11-28T13:05:32.345Z,46.19
2018-11-28T13:06:04.308Z,46.1
2018-11-28T13:06:36.277Z,46.1
2018-11-28T13:07:08.242Z,45.9
2018-11-28T13:07:40.213Z,46
2018-11-28T13:08:12.184Z,46.29
2018-11-28T13:08:44.147Z,46.19
2018-11-28T13:09:16.132Z,46.19
2018-11-28T13:09:48.133Z,46
2018-11-28T13:10:20.104Z,46
2018-11-28T13:10:52.067Z,46.19
2018-11-28T13:11:24.035Z,46.1
2018-11-28T13:12:00.555Z,46
2018-11-28T13:12:32.522Z,45.72
2018-11-28T13:13:04.497Z,46.1
2018-11-28T13:13:36.479Z,45.81
2018-11-28T13:14:08.463Z,45.81
2018-11-28T13:14:40.452Z,46.39
2018-11-28T13:15:12.449Z,46.1
2018-11-28T13:15:44.426Z,46
2018-11-28T13:16:16.385Z,46.1
2018-11-28T13:16:48.363Z,46.29
2018-11-28T13:17:20.329Z,45.9
2018-11-28T13:17:52.296Z,46
2018-11-28T13:18:24.275Z,46.19
2018-11-28T13:18:56.254Z,46.58
2018-11-28T13:19:28.229Z,46
2018-11-28T13:20:00.197Z,45.81
2018-11-28T13:20:32.190Z,46.19
2018-11-28T13:21:04.200Z,46.19
2018-11-28T13:21:36.155Z,46.19
2018-11-28T13:22:08.219Z,46.19
2018-11-28T13:22:40.199Z,46.19
2018-11-28T13:23:12.183Z,46.19
2018-11-28T13:23:44.184Z,46.19
2018-11-28T13:24:16.179Z,45.9
2018-11-28T13:24:48.152Z,45.9
2018-11-28T13:25:20.126Z,45.62
2018-11-28T13:25:52.098Z,46
2018-11-28T13:26:24.094Z,46
2018-11-28T13:26:56.064Z,46
2018-11-28T13:27:28.035Z,45.98
2018-11-28T13:28:00.001Z,46.1
2018-11-28T13:28:31.992Z,45.9
2018-11-28T13:29:03.962Z,45.9
2018-11-28T13:29:35.937Z,46.17
2018-11-28T13:30:07.946Z,46.1
2018-11-28T13:30:40.017Z,45.89
2018-11-28T13:31:12.002Z,46.17
2018-11-28T13:31:43.980Z,46.17
2018-11-28T13:32:15.959Z,46.26
2018-11-28T13:32:47.919Z,46.08
2018-11-28T13:33:19.922Z,46.17
2018-11-28T13:33:51.932Z,46.08
2018-11-28T13:34:24.015Z,46.08
2018-11-28T13:34:56.035Z,45.98
2018-11-28T13:35:28.013Z,45.98
2018-11-28T13:35:59.988Z,46.08
2018-11-28T13:36:31.979Z,46.17
2018-11-28T13:37:03.946Z,45.98
2018-11-28T13:37:35.937Z,46.08
2018-11-28T13:38:07.944Z,46.17
2018-11-28T13:38:39.936Z,45.98
2018-11-28T13:39:11.921Z,46.08
2018-11-28T13:39:43.898Z,46.08
2018-11-28T13:40:15.874Z,46.26
2018-11-28T13:40:47.863Z,45.98
2018-11-28T13:41:19.830Z,46.46
2018-11-28T13:41:51.805Z,46.17
2018-11-28T13:42:23.772Z,46.17
2018-11-28T13:42:55.722Z,46.36
2018-11-28T13:43:27.700Z,46.55
2018-11-28T13:43:59.681Z,46.65
2018-11-28T13:44:31.669Z,46.36
2018-11-28T13:45:03.636Z,45.98
2018-11-28T13:45:35.604Z,45.98
2018-11-28T13:46:08.019Z,45.89
2018-11-28T13:46:39.994Z,46.08
2018-11-28T13:47:11.957Z,46.65
2018-11-28T13:47:43.934Z,46.55
2018-11-28T13:48:15.909Z,46.36
2018-11-28T13:48:47.910Z,46.55
2018-11-28T13:49:19.944Z,46.46
2018-11-28T13:49:51.907Z,46.65
2018-11-28T13:50:23.888Z,45.98
2018-11-28T13:50:55.975Z,46.55
2018-11-28T13:51:27.963Z,46.55
2018-11-28T13:51:59.921Z,46.36
2018-11-28T13:52:31.877Z,46.26
2018-11-28T13:53:03.832Z,46.36
2018-11-28T13:53:35.806Z,46.46
2018-11-28T13:54:22.127Z,46.26
2018-11-28T13:55:39.417Z,46.25
2018-11-28T13:57:03.069Z,46.36
